createdAt,value
2023-04-29T00:02:46.038Z,2.20
2023-04-29T00:05:33.871Z,2.10
2023-04-29T00:08:22.039Z,2.30
2023-04-29T00:11:11.411Z,4.63
2023-04-29T00:14:02.636Z,6.20
2023-04-29T00:16:50.595Z,3.67
2023-04-29T00:19:38.550Z,3.53
2023-04-29T00:22:26.710Z,2.67
2023-04-29T00:25:14.859Z,2.60
2023-04-29T00:28:03.405Z,2.47
2023-04-29T00:30:53.381Z,2.70
2023-04-29T00:33:41.052Z,4.20
2023-04-29T00:36:29.410Z,3.25
2023-04-29T00:39:17.136Z,3.20
2023-04-29T00:42:05.064Z,2.83
2023-04-29T00:44:52.994Z,2.25
2023-04-29T00:47:42.453Z,3.00
2023-04-29T00:50:30.798Z,3.10
2023-04-29T00:53:18.619Z,2.40
2023-04-29T00:56:07.512Z,2.90
2023-04-29T00:58:55.889Z,3.92
2023-04-29T01:01:44.718Z,4.50
2023-04-29T01:04:33.970Z,3.20
2023-04-29T01:07:31.165Z,3.72
2023-04-29T01:10:28.748Z,3.63
2023-04-29T01:13:21.779Z,2.22
2023-04-29T01:16:18.615Z,1.95
2023-04-29T01:19:17.914Z,2.67
2023-04-29T01:22:07.223Z,2.00
2023-04-29T01:24:59.040Z,2.17
2023-04-29T01:27:53.942Z,4.00
2023-04-29T01:30:51.402Z,4.43
2023-04-29T01:33:55.839Z,2.00
2023-04-29T01:37:02.460Z,2.22
2023-04-29T01:40:06.673Z,2.50
2023-04-29T01:43:03.971Z,3.08
2023-04-29T01:45:53.421Z,3.10
2023-04-29T01:48:41.663Z,3.30
2023-04-29T01:51:29.825Z,5.35
2023-04-29T01:54:17.787Z,2.28
2023-04-29T01:57:07.029Z,2.60
2023-04-29T01:59:54.900Z,2.55
2023-04-29T02:02:42.788Z,2.30
2023-04-29T02:05:32.505Z,2.28
2023-04-29T02:08:20.544Z,2.17
2023-04-29T02:11:08.502Z,2.35
2023-04-29T02:13:57.882Z,2.30
2023-04-29T02:16:46.517Z,2.20
2023-04-29T02:19:34.261Z,2.50
2023-04-29T02:22:22.300Z,2.63
2023-04-29T02:25:19.517Z,3.00
2023-04-29T02:28:07.318Z,2.97
2023-04-29T02:30:56.992Z,3.10
2023-04-29T02:33:45.003Z,2.95
2023-04-29T02:36:33.353Z,2.85
2023-04-29T02:39:21.111Z,3.17
2023-04-29T02:42:09.093Z,4.15
2023-04-29T02:44:57.000Z,3.60
2023-04-29T02:47:46.320Z,3.80
2023-04-29T02:50:34.184Z,3.70
2023-04-29T02:53:24.768Z,3.60
2023-04-29T02:56:12.733Z,3.22
2023-04-29T02:59:00.644Z,2.80
2023-04-29T03:01:48.662Z,2.20
2023-04-29T03:04:39.993Z,1.90
2023-04-29T03:07:29.953Z,2.10
2023-04-29T03:10:18.158Z,2.00
2023-04-29T03:13:06.193Z,2.00
2023-04-29T03:15:54.130Z,2.03
2023-04-29T03:18:42.059Z,2.05
2023-04-29T03:21:31.350Z,1.90
2023-04-29T03:24:19.223Z,1.67
2023-04-29T03:27:07.338Z,2.30
2023-04-29T03:29:55.532Z,2.00
2023-04-29T03:32:43.923Z,2.00
2023-04-29T03:35:31.942Z,1.95
2023-04-29T03:38:21.312Z,1.80
2023-04-29T03:41:10.293Z,1.98
2023-04-29T03:44:00.757Z,2.00
2023-04-29T03:46:48.865Z,1.90
2023-04-29T03:49:37.580Z,1.85
2023-04-29T03:52:25.753Z,2.00
2023-04-29T03:55:14.842Z,1.63
2023-04-29T03:58:02.485Z,1.75
2023-04-29T04:00:50.591Z,1.80
2023-04-29T04:03:38.775Z,1.67
2023-04-29T04:06:27.067Z,1.85
2023-04-29T04:09:14.587Z,1.70
2023-04-29T04:12:03.965Z,1.77
2023-04-29T04:14:51.808Z,1.70
2023-04-29T04:17:40.358Z,1.70
2023-04-29T04:20:28.175Z,2.28
2023-04-29T04:23:16.261Z,2.15
2023-04-29T04:26:04.069Z,2.00
2023-04-29T04:28:53.107Z,1.70
2023-04-29T04:31:41.287Z,2.50
2023-04-29T04:34:29.187Z,2.40
2023-04-29T04:37:17.630Z,2.30
2023-04-29T04:40:06.597Z,2.20
2023-04-29T04:42:55.221Z,2.28
2023-04-29T04:45:44.409Z,1.80
2023-04-29T04:48:32.241Z,1.77
2023-04-29T04:51:20.858Z,1.80
2023-04-29T04:54:08.689Z,2.00
2023-04-29T04:56:56.597Z,1.90
2023-04-29T04:59:44.560Z,2.20
2023-04-29T05:02:34.064Z,2.10
2023-04-29T05:05:21.890Z,1.80
2023-04-29T05:08:09.636Z,2.30
2023-04-29T05:10:58.401Z,2.45
2023-04-29T05:13:46.068Z,2.10
2023-04-29T05:16:34.244Z,1.95
2023-04-29T05:19:23.578Z,2.53
2023-04-29T05:22:11.579Z,1.90
2023-04-29T05:25:03.001Z,1.90
2023-04-29T05:27:51.471Z,2.30
2023-04-29T05:30:39.610Z,3.70
2023-04-29T05:33:27.268Z,3.10
2023-04-29T05:36:16.593Z,2.13
2023-04-29T05:39:04.643Z,2.83
2023-04-29T05:41:52.732Z,2.08
2023-04-29T05:44:40.715Z,2.45
2023-04-29T05:47:28.987Z,2.45
2023-04-29T05:50:17.177Z,3.35
2023-04-29T05:53:06.250Z,7.60
2023-04-29T05:55:54.088Z,4.57
2023-04-29T05:58:42.117Z,2.50
2023-04-29T06:01:30.189Z,3.05
2023-04-29T06:04:18.442Z,2.70
2023-04-29T06:07:06.138Z,2.80
2023-04-29T06:09:56.950Z,4.28
2023-04-29T06:12:44.989Z,2.53
2023-04-29T06:15:33.345Z,3.13
2023-04-29T06:18:21.365Z,3.10
2023-04-29T06:21:09.432Z,3.45
2023-04-29T06:23:57.443Z,3.08
2023-04-29T06:26:46.966Z,3.60
2023-04-29T06:29:34.809Z,3.38
2023-04-29T06:32:22.913Z,4.13
2023-04-29T06:35:11.286Z,3.85
2023-04-29T06:37:59.599Z,5.03
2023-04-29T06:40:47.646Z,4.13
2023-04-29T06:43:37.176Z,4.05
2023-04-29T06:46:24.932Z,6.25
2023-04-29T06:49:13.251Z,5.18
2023-04-29T06:52:02.244Z,3.45
2023-04-29T06:54:50.327Z,5.28
2023-04-29T06:57:38.451Z,4.57
2023-04-29T07:00:27.428Z,4.57
2023-04-29T07:03:15.587Z,5.10
2023-04-29T07:06:06.134Z,5.15
2023-04-29T07:08:55.498Z,5.03
2023-04-29T07:11:44.694Z,5.60
2023-04-29T07:14:33.043Z,7.55
2023-04-29T07:17:22.118Z,4.75
2023-04-29T07:20:11.178Z,5.55
2023-04-29T07:22:58.934Z,12.73
2023-04-29T07:25:47.053Z,6.38
2023-04-29T07:28:34.937Z,6.95
2023-04-29T07:31:22.941Z,7.60
2023-04-29T07:34:12.446Z,10.05
2023-04-29T07:37:00.680Z,16.38
2023-04-29T07:39:48.687Z,6.55
2023-04-29T07:42:36.466Z,5.30
2023-04-29T07:45:24.344Z,10.68
2023-04-29T07:48:12.318Z,13.93
2023-04-29T07:51:01.744Z,5.40
2023-04-29T07:53:49.663Z,5.07
2023-04-29T07:56:37.678Z,5.38
2023-04-29T07:59:25.382Z,6.15
2023-04-29T08:02:13.861Z,6.70
2023-04-29T08:05:02.947Z,5.88
2023-04-29T08:07:53.333Z,5.15
2023-04-29T08:10:43.915Z,6.00
2023-04-29T08:13:32.039Z,7.10
2023-04-29T08:16:21.628Z,9.82
2023-04-29T08:19:09.535Z,12.45
2023-04-29T08:21:57.420Z,16.10
2023-04-29T08:24:46.812Z,7.03
2023-04-29T08:27:34.927Z,6.82
2023-04-29T08:30:22.832Z,4.30
2023-04-29T08:33:13.119Z,4.53
2023-04-29T08:36:03.586Z,4.85
2023-04-29T08:38:52.701Z,5.57
2023-04-29T08:41:44.194Z,5.25
2023-04-29T08:44:34.101Z,5.75
2023-04-29T08:47:23.390Z,5.68
2023-04-29T08:50:20.934Z,6.47
2023-04-29T08:53:09.177Z,4.35
2023-04-29T08:55:59.234Z,4.30
2023-04-29T08:58:51.930Z,4.35
2023-04-29T09:04:39.204Z,4.30
2023-04-29T09:07:28.441Z,4.45
2023-04-29T09:10:17.015Z,4.50
2023-04-29T09:13:05.346Z,4.40
2023-04-29T09:15:55.277Z,4.65
2023-04-29T09:18:47.591Z,4.50
2023-04-29T09:21:56.884Z,4.15
2023-04-29T09:24:45.594Z,4.63
2023-04-29T09:27:34.623Z,4.38
2023-04-29T09:30:48.199Z,5.07
2023-04-29T09:36:48.207Z,4.30
2023-04-29T09:39:54.854Z,5.20
2023-04-29T09:43:06.937Z,4.57
2023-04-29T09:46:38.408Z,4.93
2023-04-29T09:49:30.838Z,5.43
2023-04-29T09:52:38.641Z,4.70
2023-04-29T09:55:36.225Z,3.97
2023-04-29T09:58:46.473Z,5.35
2023-04-29T10:03:01.024Z,4.68
2023-04-29T10:05:23.205Z,5.60
2023-04-29T10:08:13.014Z,5.65
2023-04-29T10:11:28.670Z,4.03
2023-04-29T10:14:58.065Z,4.57
2023-04-29T10:18:16.773Z,9.40
2023-04-29T10:21:10.588Z,11.50
2023-04-29T10:24:03.537Z,11.57
2023-04-29T10:29:50.900Z,4.30
2023-04-29T10:32:50.599Z,4.00
2023-04-29T10:35:40.518Z,3.85
2023-04-29T10:38:32.332Z,4.32
2023-04-29T10:41:25.509Z,3.43
2023-04-29T10:44:13.399Z,3.60
2023-04-29T10:47:20.459Z,3.35
2023-04-29T10:50:09.078Z,3.22
2023-04-29T10:52:57.871Z,3.40
2023-04-29T10:55:49.812Z,4.25
2023-04-29T10:58:44.533Z,4.88
2023-04-29T11:01:59.568Z,4.82
2023-04-29T11:05:08.495Z,4.53
2023-04-29T11:08:12.749Z,3.92
2023-04-29T11:11:03.976Z,4.13
2023-04-29T11:13:53.746Z,3.60
2023-04-29T11:16:49.880Z,4.05
2023-04-29T11:19:42.188Z,3.80
2023-04-29T11:22:33.680Z,3.85
2023-04-29T11:25:23.656Z,3.95
2023-04-29T11:28:12.905Z,3.10
2023-04-29T11:31:03.800Z,3.25
2023-04-29T11:33:51.727Z,2.70
2023-04-29T11:36:39.420Z,3.25
2023-04-29T11:39:27.868Z,3.70
2023-04-29T11:42:20.424Z,3.83
2023-04-29T11:45:09.363Z,4.78
2023-04-29T11:47:58.880Z,3.65
2023-04-29T11:50:47.796Z,4.10
2023-04-29T11:53:38.865Z,3.92
2023-04-29T11:56:27.152Z,3.30
2023-04-29T11:59:15.066Z,3.17
2023-04-29T12:02:03.355Z,3.20
2023-04-29T12:04:53.149Z,3.10
2023-04-29T12:07:41.499Z,2.78
2023-04-29T12:10:29.869Z,3.28
2023-04-29T12:13:19.611Z,3.60
2023-04-29T12:16:11.427Z,2.90
2023-04-29T12:19:01.074Z,2.72
2023-04-29T12:21:58.338Z,2.90
2023-04-29T12:24:46.261Z,2.97
2023-04-29T12:27:34.966Z,3.40
2023-04-29T12:30:23.124Z,3.92
2023-04-29T12:33:12.728Z,5.18
2023-04-29T12:36:02.083Z,5.45
2023-04-29T12:38:54.573Z,5.97
2023-04-29T12:41:44.211Z,5.75
2023-04-29T12:44:37.980Z,4.38
2023-04-29T12:47:33.291Z,4.40
2023-04-29T12:50:21.880Z,3.72
2023-04-29T12:53:11.796Z,3.50
2023-04-29T12:56:01.639Z,2.95
2023-04-29T12:58:49.949Z,3.40
2023-04-29T13:01:38.042Z,3.17
2023-04-29T13:04:26.132Z,3.42
2023-04-29T13:07:14.195Z,3.72
2023-04-29T13:10:02.506Z,4.10
2023-04-29T13:12:52.128Z,3.80
2023-04-29T13:15:40.180Z,5.28
2023-04-29T13:18:28.032Z,5.22
2023-04-29T13:21:16.491Z,4.43
2023-04-29T13:24:04.264Z,5.20
2023-04-29T13:26:53.042Z,3.90
2023-04-29T13:29:42.558Z,4.38
2023-04-29T13:32:43.231Z,3.00
2023-04-29T13:35:35.985Z,3.20
2023-04-29T13:38:23.985Z,3.25
2023-04-29T13:41:16.864Z,3.10
2023-04-29T13:44:07.659Z,3.50
2023-04-29T13:47:08.293Z,4.67
2023-04-29T14:01:55.250Z,3.10
2023-04-29T14:04:29.847Z,3.17
2023-04-29T14:07:17.933Z,3.55
2023-04-29T14:10:06.672Z,3.10
2023-04-29T14:12:54.604Z,4.30
2023-04-29T14:15:42.711Z,5.95
2023-04-29T14:18:30.735Z,7.32
2023-04-29T14:21:22.458Z,6.20
2023-04-29T14:24:10.517Z,4.60
2023-04-29T14:26:59.134Z,3.90
2023-04-29T14:29:47.441Z,3.65
2023-04-29T14:32:35.702Z,3.30
2023-04-29T14:35:24.148Z,3.50
2023-04-29T14:38:14.390Z,3.90
2023-04-29T14:41:02.554Z,4.45
2023-04-29T14:43:50.552Z,3.83
2023-04-29T14:46:38.682Z,3.33
2023-04-29T14:49:26.706Z,4.20
2023-04-29T14:52:14.569Z,3.15
2023-04-29T14:55:04.502Z,2.97
2023-04-29T14:57:52.215Z,2.50
2023-04-29T15:00:40.299Z,3.40
2023-04-29T15:03:28.273Z,3.45
2023-04-29T15:06:16.469Z,4.07
2023-04-29T15:09:04.947Z,4.20
2023-04-29T15:11:54.385Z,4.03
2023-04-29T15:14:42.456Z,3.40
2023-04-29T15:17:30.413Z,3.55
2023-04-29T15:20:18.377Z,3.45
2023-04-29T15:23:08.436Z,3.50
2023-04-29T15:25:57.529Z,3.20
2023-04-29T15:28:47.216Z,2.67
2023-04-29T15:31:35.195Z,2.67
2023-04-29T15:34:23.258Z,2.83
2023-04-29T15:37:11.467Z,2.40
2023-04-29T15:40:00.641Z,2.30
2023-04-29T15:42:48.738Z,2.00
2023-04-29T15:45:42.194Z,1.70
2023-04-29T15:48:32.145Z,2.30
2023-04-29T15:51:20.230Z,2.10
2023-04-29T15:54:08.353Z,2.20
2023-04-29T15:56:57.566Z,2.00
2023-04-29T15:59:45.640Z,1.85
2023-04-29T16:02:35.099Z,2.10
2023-04-29T16:05:22.969Z,2.78
2023-04-29T16:08:11.120Z,4.13
2023-04-29T16:10:59.552Z,4.68
2023-04-29T16:13:47.954Z,4.45
2023-04-29T16:16:36.121Z,4.10
2023-04-29T16:19:25.324Z,3.40
2023-04-29T16:22:13.405Z,3.00
2023-04-29T16:25:01.715Z,2.92
2023-04-29T16:27:49.747Z,2.75
2023-04-29T16:30:38.020Z,2.63
2023-04-29T16:33:26.099Z,3.05
2023-04-29T16:36:15.794Z,3.20
2023-04-29T16:39:04.594Z,3.83
2023-04-29T16:41:52.795Z,4.18
2023-04-29T16:44:40.825Z,4.30
2023-04-29T16:47:28.937Z,4.32
2023-04-29T16:50:19.673Z,4.22
2023-04-29T16:53:09.021Z,4.13
2023-04-29T16:55:57.428Z,4.50
2023-04-29T16:58:45.761Z,3.60
2023-04-29T17:01:33.474Z,3.85
2023-04-29T17:04:21.445Z,3.80
2023-04-29T17:07:10.074Z,3.60
2023-04-29T17:09:59.237Z,2.97
2023-04-29T17:12:47.261Z,3.33
2023-04-29T17:15:35.556Z,3.00
2023-04-29T17:18:23.717Z,3.67
2023-04-29T17:21:11.693Z,2.65
2023-04-29T17:24:00.021Z,2.72
2023-04-29T17:26:49.883Z,2.40
2023-04-29T17:29:38.471Z,2.38
2023-04-29T17:32:29.325Z,2.65
2023-04-29T17:35:17.361Z,2.47
2023-04-29T17:38:05.670Z,2.92
2023-04-29T17:40:53.507Z,3.40
2023-04-29T17:43:43.044Z,3.60
2023-04-29T17:46:31.433Z,3.35
2023-04-29T17:49:19.558Z,3.65
2023-04-29T17:52:09.996Z,3.35
2023-04-29T17:54:57.972Z,3.30
2023-04-29T17:57:46.340Z,3.20
2023-04-29T18:00:36.192Z,3.50
2023-04-29T18:03:27.109Z,3.80
2023-04-29T18:06:15.911Z,4.40
2023-04-29T18:09:04.084Z,5.38
2023-04-29T18:11:52.391Z,5.38
2023-04-29T18:14:40.465Z,4.45
2023-04-29T18:17:29.977Z,4.15
2023-04-29T18:20:18.033Z,3.97
2023-04-29T18:23:06.453Z,4.88
2023-04-29T18:25:54.830Z,5.40
2023-04-29T18:28:43.303Z,5.53
2023-04-29T18:31:31.650Z,5.05
2023-04-29T18:34:20.858Z,4.57
2023-04-29T18:37:08.811Z,4.18
2023-04-29T18:39:56.924Z,4.25
2023-04-29T18:42:45.237Z,4.32
2023-04-29T18:45:33.320Z,4.53
2023-04-29T18:48:21.453Z,5.05
2023-04-29T18:51:11.100Z,5.68
2023-04-29T18:53:59.130Z,5.68
2023-04-29T18:56:48.899Z,5.32
2023-04-29T18:59:38.014Z,5.53
2023-04-29T19:02:26.389Z,5.75
2023-04-29T19:05:14.448Z,5.25
2023-04-29T19:08:03.896Z,5.13
2023-04-29T19:10:53.376Z,5.22
2023-04-29T19:13:41.185Z,5.07
2023-04-29T19:16:29.410Z,5.30
2023-04-29T19:19:17.416Z,5.20
2023-04-29T19:22:05.519Z,5.07
2023-04-29T19:24:54.751Z,4.90
2023-04-29T19:27:45.071Z,4.78
2023-04-29T19:30:33.541Z,4.75
2023-04-29T19:33:21.402Z,4.78
2023-04-29T19:36:11.357Z,6.38
2023-04-29T19:38:59.533Z,5.88
2023-04-29T19:41:48.605Z,5.72
2023-04-29T19:44:36.413Z,5.70
2023-04-29T19:47:24.885Z,5.63
2023-04-29T19:50:12.944Z,5.88
2023-04-29T19:53:01.164Z,5.90
2023-04-29T19:55:51.594Z,6.00
2023-04-29T19:58:41.101Z,5.88
2023-04-29T20:01:29.172Z,5.82
2023-04-29T20:04:16.948Z,5.15
2023-04-29T20:07:04.809Z,5.47
2023-04-29T20:09:52.838Z,5.75
2023-04-29T20:12:40.715Z,5.55
2023-04-29T20:15:30.776Z,6.00
2023-04-29T20:18:18.983Z,5.78
2023-04-29T20:21:06.928Z,6.60
2023-04-29T20:23:54.831Z,6.65
2023-04-29T20:26:42.702Z,7.70
2023-04-29T20:29:30.589Z,8.40
2023-04-29T20:32:19.962Z,8.75
2023-04-29T20:35:08.246Z,10.38
2023-04-29T20:37:56.592Z,11.85
2023-04-29T20:40:44.556Z,13.07
2023-04-29T20:43:33.168Z,14.02
2023-04-29T20:46:21.166Z,14.18
2023-04-29T20:49:10.704Z,15.15
2023-04-29T20:51:58.821Z,16.75
2023-04-29T20:54:47.101Z,17.83
2023-04-29T20:57:35.165Z,17.48
2023-04-29T21:00:23.062Z,17.65
2023-04-29T21:03:11.517Z,17.92
2023-04-29T21:06:01.215Z,18.08
2023-04-29T21:08:49.426Z,16.10
2023-04-29T21:11:37.193Z,17.95
2023-04-29T21:14:25.422Z,17.40
2023-04-29T21:17:13.869Z,18.23
2023-04-29T21:20:01.744Z,17.25
2023-04-29T21:22:51.342Z,15.82
2023-04-29T21:25:39.513Z,14.40
2023-04-29T21:28:27.819Z,15.15
2023-04-29T21:31:16.563Z,13.70
2023-04-29T21:34:04.546Z,13.00
2023-04-29T21:36:52.251Z,11.73
2023-04-29T21:39:41.849Z,9.65
2023-04-29T21:42:30.012Z,9.85
2023-04-29T21:45:18.523Z,9.23
2023-04-29T21:48:15.638Z,9.63
2023-04-29T21:51:05.299Z,8.48
2023-04-29T21:53:53.713Z,8.63
2023-04-29T21:56:43.196Z,7.97
2023-04-29T21:59:34.311Z,7.38
2023-04-29T22:02:25.123Z,7.40
2023-04-29T22:05:13.127Z,7.28
2023-04-29T22:08:03.115Z,7.70
2023-04-29T22:10:51.252Z,8.73
2023-04-29T22:13:40.704Z,7.85
2023-04-29T22:16:28.432Z,6.95
2023-04-29T22:19:16.686Z,6.63
2023-04-29T22:22:04.773Z,6.15
2023-04-29T22:24:52.608Z,6.45
2023-04-29T22:27:40.550Z,6.30
2023-04-29T22:30:29.836Z,5.47
2023-04-29T22:33:17.742Z,5.93
2023-04-29T22:36:06.107Z,5.00
2023-04-29T22:38:54.280Z,5.70
2023-04-29T22:41:42.228Z,5.43
2023-04-29T22:44:30.248Z,4.70
2023-04-29T22:47:19.701Z,5.45
2023-04-29T22:50:08.786Z,5.55
2023-04-29T22:52:56.584Z,5.18
2023-04-29T22:55:51.576Z,5.30
2023-04-29T22:58:39.531Z,4.88
2023-04-29T23:01:27.246Z,5.43
2023-04-29T23:04:16.644Z,4.88
2023-04-29T23:07:04.581Z,5.20
2023-04-29T23:09:53.270Z,5.40
2023-04-29T23:12:41.140Z,5.65
2023-04-29T23:15:29.690Z,5.70
2023-04-29T23:18:17.423Z,5.25
2023-04-29T23:21:07.184Z,5.95
2023-04-29T23:23:55.707Z,5.30
2023-04-29T23:26:43.669Z,5.28
2023-04-29T23:29:34.246Z,5.20
2023-04-29T23:32:22.223Z,5.13
2023-04-29T23:35:11.350Z,5.97
2023-04-29T23:38:00.667Z,5.75
2023-04-29T23:40:48.890Z,5.88
2023-04-29T23:43:36.925Z,6.25
2023-04-29T23:46:25.506Z,6.05
2023-04-29T23:49:13.346Z,5.88
2023-04-29T23:52:01.397Z,5.43
2023-04-29T23:54:50.784Z,5.80
2023-04-29T23:57:38.782Z,5.63
